Ames, IA

3:35 PM CDT on August 23, 2014 (GMT -0500)
Ames Municipal | Change Station
CLOSE
Current Station
Airport
Location: Ames,
Elevation: 955 ft
Nearby Weather Stations

Elev 955 ft 41.99 °N, 93.62 °W | Updated 42 minutes ago

Scattered Clouds
Scattered Clouds
82 °F
Feels Like 87 °F
N
9
Wind Variable Wind from ESE

Today
High -- | Low -- °F
--% Chance of Precip.
Yesterday
High -- | Low -- °F
Precip. -- in
6:30 AM 8:02 PM
Waning Crescent, 3% visible
Pressure 29.86 in
Visibility 10.0 miles
Clouds Scattered Clouds 12000 ft
Heat Index 87 °F
Dew Point 73 °F
Humidity 74%
Rainfall 0.18 in
Snow Depth Not available.
UV 6 out of 12
Pollen 5.80 out of 12
Air Quality Not available.
Flu Activity Not available.
METAR KAMW 231953Z AUTO 12008KT 10SM SCT120 28/23 A2989 RMK AO2 SLP110 T02780228

More Conditions Fewer Conditions

Pressure 29.86 in
Visibility 10.0 miles
Clouds Scattered Clouds 12000 ft
Heat Index 87 °F
Dew Point 73 °F
Humidity 74%
Rainfall 0.18 in
Snow Depth Not available.
UV 6 out of 12
Pollen 5.80 out of 12
Air Quality Not available.
Flu Activity Not available.
METAR KAMW 231953Z AUTO 12008KT 10SM SCT120 28/23 A2989 RMK AO2 SLP110 T02780228

More Conditions Fewer Conditions

10-Day Weather Forecast

Almanac

Astronomy

Aug. 23, 2014 Rise Set
Actual Time 6:30 AM CDT 8:02 PM CDT
Civil Twilight 6:01 AM CDT 8:32 PM CDT
Nautical Twilight 5:25 AM CDT 9:07 PM CDT
Astronomical Twilight 4:47 AM CDT 9:45 PM CDT
Moon 4:46 AM CDT 6:48 PM CDT
Length of Visible Light 14h 30m
Length of Day
13h 32m
Tomorrow will be 2m 36s shorter.
Waning Crescent, 3% of the Moon is Illuminated
Today
Waning Crescent
Aug 25
New
Sep 2
First Quarter
Sep 8
Full
Sep 15
Last Quarter

Today's Extremes

State Highs State Lows

Community

WunderPhotos

Upload Photos

1,746,619 photos uploaded!

WunderBlogs® & News

Nearby

Snow Depth

Station Depth Elevation
No new snow has been reported.

Earthquake Activity

City Distance Mag. Time & Date
No recent earthquake activity has been reported nearby.
Minimum magnitude displayed is 2.5.

Coastal Water Temperatures

Place Temperature
No Stations Reporting

Nearby Weather Stations